Time;durP1;ratioP1;P1;durP2;ratioP2;P2;SDS_P1;SDS_P2;PMS_P1;PMS_P2;Temp;Humidity;BMP_temperature;BMP_pressure;BME280_temperature;BME280_humidity;BME280_pressure;Samples;Min_cycle;Max_cycle;Signal;HPM_P1;HPM_P2
2023/03/01 00:01:37;;;;;;;39.10;17.25;;;;;;;;;;5051360;28;20025;-73
2023/03/01 00:04:03;;;;;;;42.28;20.25;;;;;;;;;;5051211;28;20020;-73
2023/03/01 00:06:29;;;;;;;45.88;19.95;;;;;;;;;;5050465;28;20064;-74
2023/03/01 00:08:55;;;;;;;42.45;19.05;;;;;;;;;;5051265;28;20422;-73
2023/03/01 00:11:23;;;;;;;40.47;19.13;;;;;;;;;;5051763;28;20096;-74
2023/03/01 00:13:50;;;;;;;45.97;21.95;;;;;;;;;;5051142;28;20462;-72
2023/03/01 00:16:18;;;;;;;41.42;20.40;;;;;;;;;;5051152;28;20036;-72
2023/03/01 00:18:44;;;;;;;40.70;19.08;;;;;;;;;;5051292;28;20025;-73
2023/03/01 00:21:10;;;;;;;41.88;18.23;;;;;;;;;;5050930;28;20033;-72
2023/03/01 00:23:37;;;;;;;38.88;17.80;;;;;;;;;;5050852;28;20075;-72
2023/03/01 00:26:06;;;;;;;37.67;18.50;;;;;;;;;;5051072;28;20239;-71
2023/03/01 00:28:32;;;;;;;44.20;18.30;;;;;;;;;;5051080;28;20100;-72
2023/03/01 00:31:03;;;;;;;39.65;17.83;;;;;;;;;;5051027;28;20056;-72
2023/03/01 00:33:29;;;;;;;38.67;18.48;;;;;;;;;;5050772;28;20505;-72
2023/03/01 00:35:55;;;;;;;41.50;18.13;;;;;;;;;;5050638;28;20025;-73
2023/03/01 00:38:21;;;;;;;38.50;16.73;;;;;;;;;;5051033;28;20425;-73
2023/03/01 00:40:47;;;;;;;38.30;17.35;;;;;;;;;;5050765;28;20028;-73
2023/03/01 00:43:13;;;;;;;36.60;16.98;;;;;;;;;;5050376;28;20029;-74
2023/03/01 00:45:39;;;;;;;35.95;16.13;;;;;;;;;;5050712;28;20555;-73
2023/03/01 00:48:05;;;;;;;35.70;16.35;;;;;;;;;;5050462;28;20029;-73
2023/03/01 00:50:31;;;;;;;36.72;16.80;;;;;;;;;;5050614;28;20025;-73
2023/03/01 00:52:57;;;;;;;31.77;14.88;;;;;;;;;;5050416;28;20032;-74
2023/03/01 00:55:23;;;;;;;38.25;15.68;;;;;;;;;;5050638;28;20022;-74
2023/03/01 00:57:49;;;;;;;35.15;16.50;;;;;;;;;;5050607;28;20039;-73
2023/03/01 01:00:15;;;;;;;48.63;18.65;;;;;;;;;;5050484;28;20025;-72
2023/03/01 01:02:41;;;;;;;44.08;19.00;;;;;;;;;;5050313;28;20112;-74
2023/03/01 01:05:08;;;;;;;46.67;19.85;;;;;;;;;;5050124;28;20033;-74
2023/03/01 01:07:34;;;;;;;41.28;19.30;;;;;;;;;;5050525;28;20047;-72
2023/03/01 01:10:00;;;;;;;41.50;18.55;;;;;;;;;;5050645;28;20029;-73
2023/03/01 01:12:26;;;;;;;45.00;19.15;;;;;;;;;;5050275;28;20029;-72
2023/03/01 01:14:52;;;;;;;45.72;19.17;;;;;;;;;;5050959;28;20021;-72
2023/03/01 01:17:18;;;;;;;41.20;19.10;;;;;;;;;;5050775;28;20087;-73
2023/03/01 01:19:44;;;;;;;41.92;19.95;;;;;;;;;;5054501;28;20096;-73
2023/03/01 01:22:10;;;;;;;43.85;19.85;;;;;;;;;;5054287;28;20478;-73
2023/03/01 01:24:36;;;;;;;41.67;18.83;;;;;;;;;;5054476;28;20021;-73
2023/03/01 01:27:02;;;;;;;43.85;18.52;;;;;;;;;;5054259;28;20036;-72
2023/03/01 01:29:28;;;;;;;44.33;17.70;;;;;;;;;;5054278;28;20025;-73
2023/03/01 01:31:54;;;;;;;40.33;16.55;;;;;;;;;;5054052;28;20017;-72
2023/03/01 01:34:21;;;;;;;39.70;17.85;;;;;;;;;;5054028;28;20529;-73
2023/03/01 01:36:50;;;;;;;39.00;17.92;;;;;;;;;;5054115;28;20059;-72
2023/03/01 01:39:16;;;;;;;41.95;16.63;;;;;;;;;;5054300;28;20495;-72
2023/03/01 01:41:43;;;;;;;36.33;15.15;;;;;;;;;;5053935;28;20083;-72
2023/03/01 01:44:18;;;;;;;32.17;14.23;;;;;;;;;;5054294;28;20055;-73
2023/03/01 01:46:55;;;;;;;40.33;14.70;;;;;;;;;;5054299;28;20036;-73
2023/03/01 01:49:30;;;;;;;33.17;14.27;;;;;;;;;;5054047;28;20029;-73
2023/03/01 01:51:58;;;;;;;33.28;14.95;;;;;;;;;;5053971;28;20017;-72
2023/03/01 01:54:30;;;;;;;39.17;16.02;;;;;;;;;;5054176;28;20031;-74
2023/03/01 01:56:58;;;;;;;38.35;16.88;;;;;;;;;;5054729;28;20025;-73
2023/03/01 01:59:25;;;;;;;34.35;16.60;;;;;;;;;;5054845;28;20033;-73
2023/03/01 02:01:52;;;;;;;38.53;17.55;;;;;;;;;;5054843;28;20397;-71
2023/03/01 02:04:18;;;;;;;38.60;17.20;;;;;;;;;;5054703;28;20033;-73
2023/03/01 02:06:54;;;;;;;39.75;17.85;;;;;;;;;;5054886;28;20025;-73
2023/03/01 02:09:21;;;;;;;38.03;17.60;;;;;;;;;;5056078;28;20071;-73
2023/03/01 02:11:47;;;;;;;39.10;17.52;;;;;;;;;;5054737;28;20020;-73
2023/03/01 02:14:14;;;;;;;46.50;19.08;;;;;;;;;;5055765;28;20025;-73
2023/03/01 02:16:41;;;;;;;38.80;17.38;;;;;;;;;;5054580;28;20061;-73
2023/03/01 02:19:08;;;;;;;40.83;18.35;;;;;;;;;;5054129;28;20075;-72
2023/03/01 02:21:34;;;;;;;37.63;18.17;;;;;;;;;;5053557;28;20079;-72
2023/03/01 02:24:06;;;;;;;37.97;16.85;;;;;;;;;;5053124;28;20437;-72
2023/03/01 02:26:41;;;;;;;34.78;16.33;;;;;;;;;;5053209;28;20033;-74
2023/03/01 02:29:07;;;;;;;43.90;16.85;;;;;;;;;;5052805;28;20021;-72
2023/03/01 02:31:42;;;;;;;32.17;16.17;;;;;;;;;;5053597;28;20593;-73
2023/03/01 02:34:16;;;;;;;39.65;16.90;;;;;;;;;;5053378;28;20363;-73
2023/03/01 02:36:45;;;;;;;33.97;16.58;;;;;;;;;;5052982;28;20051;-73
2023/03/01 02:39:16;;;;;;;33.85;16.08;;;;;;;;;;5052377;28;20024;-73
2023/03/01 02:41:44;;;;;;;36.88;17.15;;;;;;;;;;5053216;28;20029;-73
2023/03/01 02:44:10;;;;;;;37.38;16.08;;;;;;;;;;5052799;28;20044;-73
2023/03/01 02:46:42;;;;;;;34.03;16.02;;;;;;;;;;5052692;28;20467;-73
2023/03/01 02:49:19;;;;;;;34.22;15.63;;;;;;;;;;5052935;28;20032;-73
2023/03/01 02:51:45;;;;;;;34.28;15.45;;;;;;;;;;5052416;28;20036;-74
2023/03/01 02:54:24;;;;;;;38.88;15.85;;;;;;;;;;5052727;28;20382;-73
2023/03/01 02:56:50;;;;;;;31.00;15.68;;;;;;;;;;5054067;28;20036;-73
2023/03/01 02:59:18;;;;;;;35.03;15.18;;;;;;;;;;5051054;28;20032;-74
2023/03/01 03:01:44;;;;;;;33.40;14.85;;;;;;;;;;5053421;28;20029;-73
2023/03/01 03:04:12;;;;;;;35.08;15.43;;;;;;;;;;5053451;28;20051;-73
2023/03/01 03:06:38;;;;;;;39.45;16.45;;;;;;;;;;5053223;28;20029;-74
2023/03/01 03:09:04;;;;;;;34.63;15.48;;;;;;;;;;5053591;28;20021;-73
2023/03/01 03:11:32;;;;;;;38.88;16.92;;;;;;;;;;5052235;28;20124;-73
2023/03/01 03:13:58;;;;;;;35.42;15.38;;;;;;;;;;5056366;28;20013;-74
2023/03/01 03:16:24;;;;;;;34.05;15.60;;;;;;;;;;5054208;28;20055;-73
2023/03/01 03:18:50;;;;;;;35.47;15.25;;;;;;;;;;5052622;28;20463;-73
2023/03/01 03:21:17;;;;;;;32.28;14.95;;;;;;;;;;5052122;28;20091;-71
2023/03/01 03:23:43;;;;;;;33.53;14.55;;;;;;;;;;5050070;28;20252;-71
2023/03/01 03:26:14;;;;;;;30.80;15.18;;;;;;;;;;5041756;28;20095;-72
2023/03/01 03:28:40;;;;;;;29.63;13.32;;;;;;;;;;5047369;28;20021;-74
2023/03/01 03:31:07;;;;;;;31.20;13.85;;;;;;;;;;5051010;28;20750;-73
2023/03/01 03:33:33;;;;;;;29.13;13.18;;;;;;;;;;5051001;28;20040;-73
2023/03/01 03:35:59;;;;;;;33.42;16.30;;;;;;;;;;5044424;28;20491;-73
2023/03/01 03:38:25;;;;;;;29.77;14.80;;;;;;;;;;5050998;28;20033;-73
2023/03/01 03:40:52;;;;;;;34.38;16.08;;;;;;;;;;5055944;28;20031;-73
2023/03/01 03:43:23;;;;;;;30.60;14.77;;;;;;;;;;5047427;28;20530;-72
2023/03/01 03:45:50;;;;;;;43.80;17.40;;;;;;;;;;5043945;28;20027;-73
2023/03/01 03:48:19;;;;;;;35.05;16.73;;;;;;;;;;5053270;28;20132;-73
2023/03/01 03:50:55;;;;;;;36.72;16.45;;;;;;;;;;5049286;28;20017;-72
2023/03/01 03:53:22;;;;;;;34.13;15.77;;;;;;;;;;5046692;28;20063;-73
2023/03/01 03:55:49;;;;;;;42.67;17.38;;;;;;;;;;5051464;28;20036;-73
2023/03/01 03:58:16;;;;;;;37.25;17.50;;;;;;;;;;5046974;28;20052;-73
2023/03/01 04:00:43;;;;;;;32.47;16.23;;;;;;;;;;5047316;28;20053;-73
2023/03/01 04:03:09;;;;;;;34.83;16.17;;;;;;;;;;5051366;28;20029;-73
2023/03/01 04:05:36;;;;;;;41.15;19.48;;;;;;;;;;5045746;28;20539;-74
2023/03/01 04:08:02;;;;;;;41.30;18.88;;;;;;;;;;5053279;28;20501;-74
2023/03/01 04:10:29;;;;;;;39.88;17.92;;;;;;;;;;5045145;28;20025;-73
2023/03/01 04:12:58;;;;;;;36.13;17.48;;;;;;;;;;5047720;28;20070;-73
2023/03/01 04:15:25;;;;;;;33.03;15.52;;;;;;;;;;5048091;28;20048;-73
2023/03/01 04:17:52;;;;;;;39.42;16.15;;;;;;;;;;5051344;28;20025;-71
2023/03/01 04:20:25;;;;;;;32.00;16.17;;;;;;;;;;5051560;28;20037;-73
2023/03/01 04:23:15;;;;;;;33.83;16.98;;;;;;;;;;5051299;28;20470;-73
2023/03/01 04:25:55;;;;;;;28.98;14.95;;;;;;;;;;5051236;28;20436;-75
2023/03/01 04:28:26;;;;;;;30.20;15.18;;;;;;;;;;5049845;28;20070;-77
2023/03/01 04:30:53;;;;;;;30.50;14.05;;;;;;;;;;5050974;28;20049;-72
2023/03/01 04:33:19;;;;;;;33.33;14.70;;;;;;;;;;5050998;28;20029;-72
2023/03/01 04:35:45;;;;;;;32.30;15.40;;;;;;;;;;5051327;28;20106;-73
2023/03/01 04:38:11;;;;;;;28.08;13.38;;;;;;;;;;5051549;28;20028;-72
2023/03/01 04:40:37;;;;;;;30.52;14.25;;;;;;;;;;5050417;28;20098;-73
2023/03/01 04:43:04;;;;;;;31.88;14.52;;;;;;;;;;5051625;28;20029;-73
2023/03/01 04:45:31;;;;;;;30.15;13.98;;;;;;;;;;5051345;28;20131;-72
2023/03/01 04:47:58;;;;;;;25.92;12.48;;;;;;;;;;5050199;28;20017;-72
2023/03/01 04:50:25;;;;;;;23.80;13.60;;;;;;;;;;5051726;28;20029;-73
2023/03/01 04:52:52;;;;;;;26.92;13.50;;;;;;;;;;5050930;28;20108;-72
2023/03/01 04:55:18;;;;;;;31.25;14.25;;;;;;;;;;5051526;28;20024;-72
2023/03/01 04:57:44;;;;;;;27.27;12.77;;;;;;;;;;5051736;28;20063;-75
2023/03/01 05:00:19;;;;;;;29.10;13.40;;;;;;;;;;5052260;28;20041;-76
2023/03/01 05:02:59;;;;;;;27.40;14.00;;;;;;;;;;5051466;28;20029;-73
2023/03/01 05:05:25;;;;;;;32.55;14.52;;;;;;;;;;5051594;28;20459;-72
2023/03/01 05:07:56;;;;;;;26.17;13.13;;;;;;;;;;5051499;28;20539;-73
2023/03/01 05:10:22;;;;;;;29.35;13.77;;;;;;;;;;5051436;28;20029;-74
2023/03/01 05:12:48;;;;;;;29.52;13.60;;;;;;;;;;5051520;28;20477;-73
2023/03/01 05:15:14;;;;;;;27.90;13.50;;;;;;;;;;5051600;28;20025;-72
2023/03/01 05:17:41;;;;;;;39.50;20.13;;;;;;;;;;5051413;28;20540;-72
2023/03/01 05:20:08;;;;;;;28.35;13.63;;;;;;;;;;5051748;28;20363;-73
2023/03/01 05:22:35;;;;;;;37.70;13.70;;;;;;;;;;5051660;28;20025;-73
2023/03/01 05:25:01;;;;;;;29.15;12.90;;;;;;;;;;5051430;28;20035;-73
2023/03/01 05:27:27;;;;;;;26.38;11.73;;;;;;;;;;5051628;28;20383;-73
2023/03/01 05:29:53;;;;;;;24.77;12.10;;;;;;;;;;5051469;28;20095;-73
2023/03/01 05:32:19;;;;;;;33.67;13.30;;;;;;;;;;5058828;28;20043;-75
2023/03/01 05:34:46;;;;;;;21.33;10.25;;;;;;;;;;5059350;28;20025;-75
2023/03/01 05:37:13;;;;;;;24.27;10.48;;;;;;;;;;5050355;28;20029;-76
2023/03/01 05:39:41;;;;;;;26.45;11.43;;;;;;;;;;5067501;28;20171;-74
2023/03/01 05:42:10;;;;;;;29.13;10.90;;;;;;;;;;5038123;28;20033;-75
2023/03/01 05:44:36;;;;;;;25.85;12.05;;;;;;;;;;5044016;28;20115;-76
2023/03/01 05:47:02;;;;;;;27.40;12.48;;;;;;;;;;5053511;28;20104;-76
2023/03/01 05:49:29;;;;;;;23.92;12.38;;;;;;;;;;5053168;28;20071;-75
2023/03/01 05:51:55;;;;;;;19.40;9.75;;;;;;;;;;5050556;28;20493;-74
2023/03/01 05:54:22;;;;;;;20.20;10.63;;;;;;;;;;5056757;28;20017;-76
2023/03/01 05:56:49;;;;;;;21.35;11.10;;;;;;;;;;5055827;28;20021;-75
2023/03/01 05:59:16;;;;;;;21.17;10.02;;;;;;;;;;5052934;28;20084;-73
2023/03/01 06:01:42;;;;;;;18.80;9.80;;;;;;;;;;5051623;28;20082;-72
2023/03/01 06:04:08;;;;;;;26.05;12.68;;;;;;;;;;5052972;28;20025;-74
2023/03/01 06:06:37;;;;;;;23.90;11.50;;;;;;;;;;5056154;28;20489;-74
2023/03/01 06:09:03;;;;;;;21.90;11.10;;;;;;;;;;5055064;28;20025;-75
2023/03/01 06:11:29;;;;;;;22.88;11.00;;;;;;;;;;5054450;28;20099;-74
2023/03/01 06:13:55;;;;;;;20.00;10.43;;;;;;;;;;5054880;28;20049;-73
2023/03/01 06:16:21;;;;;;;22.25;9.65;;;;;;;;;;5055202;28;20026;-72
2023/03/01 06:18:46;;;;;;;22.83;10.57;;;;;;;;;;5054434;28;20028;-73
2023/03/01 06:21:13;;;;;;;21.63;10.15;;;;;;;;;;5054886;28;20029;-73
2023/03/01 06:23:39;;;;;;;29.67;12.93;;;;;;;;;;5054556;28;20048;-72
2023/03/01 06:26:06;;;;;;;25.30;12.23;;;;;;;;;;5054286;28;20055;-72
2023/03/01 06:28:32;;;;;;;31.30;14.48;;;;;;;;;;5054295;28;20032;-72
2023/03/01 06:30:58;;;;;;;26.00;11.88;;;;;;;;;;5052269;28;20464;-75
2023/03/01 06:33:24;;;;;;;24.35;11.40;;;;;;;;;;5057770;28;20021;-76
2023/03/01 06:35:50;;;;;;;21.65;10.27;;;;;;;;;;5054126;28;20086;-76
2023/03/01 06:38:18;;;;;;;24.55;10.48;;;;;;;;;;5055437;28;20025;-74
2023/03/01 06:40:44;;;;;;;23.75;11.85;;;;;;;;;;5051965;28;20082;-73
2023/03/01 06:43:10;;;;;;;20.98;9.82;;;;;;;;;;5053430;28;20063;-73
2023/03/01 06:45:37;;;;;;;22.33;10.18;;;;;;;;;;5053477;28;20131;-77
2023/03/01 06:48:04;;;;;;;21.92;10.10;;;;;;;;;;5057129;28;20359;-77
2023/03/01 06:50:30;;;;;;;23.98;11.55;;;;;;;;;;5053408;28;20036;-77
2023/03/01 06:52:56;;;;;;;20.52;10.52;;;;;;;;;;5054743;28;20017;-75
2023/03/01 06:55:22;;;;;;;33.38;11.43;;;;;;;;;;5053099;28;20071;-75
2023/03/01 06:57:48;;;;;;;21.00;10.55;;;;;;;;;;5053837;28;20111;-74
2023/03/01 07:00:14;;;;;;;29.65;11.07;;;;;;;;;;5049927;28;20439;-74
2023/03/01 07:02:40;;;;;;;19.63;10.50;;;;;;;;;;5054685;28;20029;-73
2023/03/01 07:05:07;;;;;;;24.73;11.45;;;;;;;;;;5055111;28;20075;-76
2023/03/01 07:07:33;;;;;;;29.13;11.63;;;;;;;;;;5053383;28;20022;-77
2023/03/01 07:09:59;;;;;;;22.35;11.05;;;;;;;;;;5071162;28;20043;-81
2023/03/01 07:12:25;;;;;;;29.92;13.13;;;;;;;;;;5059178;28;20535;-73
2023/03/01 07:14:50;;;;;;;23.52;11.32;;;;;;;;;;5051923;28;20021;-74
2023/03/01 07:17:16;;;;;;;24.48;10.95;;;;;;;;;;5053577;28;20490;-73
2023/03/01 07:19:43;;;;;;;20.92;10.27;;;;;;;;;;5053266;28;20133;-75
2023/03/01 07:22:09;;;;;;;20.67;10.30;;;;;;;;;;5053329;28;20103;-73
2023/03/01 07:24:35;;;;;;;20.40;9.95;;;;;;;;;;5056845;28;20118;-74
2023/03/01 07:27:01;;;;;;;22.60;10.35;;;;;;;;;;5057929;28;20029;-74
2023/03/01 07:29:28;;;;;;;17.80;9.63;;;;;;;;;;5055615;28;20032;-75
2023/03/01 07:31:54;;;;;;;20.98;9.70;;;;;;;;;;5054784;28;20078;-76
2023/03/01 07:34:21;;;;;;;21.95;9.70;;;;;;;;;;5058649;28;20029;-78
2023/03/01 07:36:47;;;;;;;24.98;10.80;;;;;;;;;;5053136;28;20033;-75
2023/03/01 07:39:13;;;;;;;19.17;10.25;;;;;;;;;;5053344;28;20032;-75
2023/03/01 07:41:39;;;;;;;21.05;11.20;;;;;;;;;;5053435;28;20082;-75
2023/03/01 07:44:05;;;;;;;21.83;10.50;;;;;;;;;;5053564;28;20033;-73
2023/03/01 07:46:32;;;;;;;22.90;10.65;;;;;;;;;;5054028;28;20540;-73
2023/03/01 07:48:58;;;;;;;20.33;10.43;;;;;;;;;;5054272;28;20719;-74
2023/03/01 07:51:24;;;;;;;19.42;9.70;;;;;;;;;;5053009;28;20639;-73
2023/03/01 07:53:50;;;;;;;20.90;11.18;;;;;;;;;;5052851;28;20028;-73
2023/03/01 07:56:18;;;;;;;20.27;10.70;;;;;;;;;;5054279;28;20029;-74
2023/03/01 07:58:44;;;;;;;24.50;11.55;;;;;;;;;;5053395;28;20071;-72
2023/03/01 08:01:14;;;;;;;24.08;12.25;;;;;;;;;;5051423;28;20032;-73
2023/03/01 08:03:41;;;;;;;26.27;11.75;;;;;;;;;;5051512;28;20486;-73
2023/03/01 08:06:08;;;;;;;29.75;13.10;;;;;;;;;;5052512;28;20028;-75
2023/03/01 08:08:35;;;;;;;24.38;12.60;;;;;;;;;;5053279;28;20021;-74
2023/03/01 08:11:02;;;;;;;23.70;12.43;;;;;;;;;;5053149;28;20075;-74
2023/03/01 08:13:28;;;;;;;26.05;12.82;;;;;;;;;;5053303;28;20045;-73
2023/03/01 08:15:54;;;;;;;21.73;12.25;;;;;;;;;;5051468;28;20031;-72
2023/03/01 08:18:21;;;;;;;34.63;13.05;;;;;;;;;;5051935;28;20170;-73
2023/03/01 08:20:47;;;;;;;30.08;14.60;;;;;;;;;;5053462;28;20072;-72
2023/03/01 08:23:13;;;;;;;20.27;11.60;;;;;;;;;;5056305;28;20067;-74
2023/03/01 08:25:39;;;;;;;27.70;12.27;;;;;;;;;;5057700;28;20028;-71
2023/03/01 08:28:06;;;;;;;29.55;14.52;;;;;;;;;;5054831;28;20033;-72
2023/03/01 08:30:32;;;;;;;27.08;13.80;;;;;;;;;;5056275;28;20024;-73
2023/03/01 08:32:58;;;;;;;26.60;13.90;;;;;;;;;;5054418;28;20536;-72
2023/03/01 08:35:24;;;;;;;30.05;14.60;;;;;;;;;;5063839;28;20024;-73
2023/03/01 08:37:50;;;;;;;27.05;15.23;;;;;;;;;;5053221;28;20032;-74
2023/03/01 08:40:16;;;;;;;24.60;13.98;;;;;;;;;;5051743;28;20021;-74
2023/03/01 08:42:45;;;;;;;25.00;13.95;;;;;;;;;;5051076;28;20482;-75
2023/03/01 08:45:12;;;;;;;31.23;14.73;;;;;;;;;;5050820;28;20517;-74
2023/03/01 08:47:39;;;;;;;30.70;15.23;;;;;;;;;;5051343;28;20045;-77
2023/03/01 08:50:05;;;;;;;29.08;15.70;;;;;;;;;;5051490;28;20017;-76
2023/03/01 08:52:32;;;;;;;28.73;16.38;;;;;;;;;;5052374;28;20435;-75
2023/03/01 08:55:01;;;;;;;36.30;18.30;;;;;;;;;;5051397;28;20029;-74
2023/03/01 08:57:27;;;;;;;34.97;18.77;;;;;;;;;;5051853;28;20027;-73
2023/03/01 08:59:55;;;;;;;39.38;20.23;;;;;;;;;;5052106;28;20103;-73
2023/03/01 09:02:21;;;;;;;43.58;22.33;;;;;;;;;;5051817;28;20051;-72
2023/03/01 09:04:47;;;;;;;43.60;21.85;;;;;;;;;;5051894;28;20025;-73
2023/03/01 09:07:13;;;;;;;46.58;23.30;;;;;;;;;;5051856;28;20025;-73
2023/03/01 09:09:39;;;;;;;45.97;23.10;;;;;;;;;;5052337;28;20029;-73
2023/03/01 09:12:05;;;;;;;43.42;22.10;;;;;;;;;;5052256;28;20036;-73
2023/03/01 09:14:31;;;;;;;43.63;21.55;;;;;;;;;;5052823;28;20021;-72
2023/03/01 09:16:58;;;;;;;39.25;20.35;;;;;;;;;;5052032;28;20032;-72
2023/03/01 09:19:24;;;;;;;42.58;21.65;;;;;;;;;;5051747;28;20100;-71
2023/03/01 09:21:53;;;;;;;40.85;20.60;;;;;;;;;;5051361;28;20064;-72
2023/03/01 09:24:20;;;;;;;36.00;19.17;;;;;;;;;;5051633;28;20055;-72
2023/03/01 09:26:47;;;;;;;40.15;18.50;;;;;;;;;;5051601;28;20028;-73
2023/03/01 09:29:14;;;;;;;33.90;17.52;;;;;;;;;;5051716;28;20014;-73
2023/03/01 09:31:40;;;;;;;29.80;16.35;;;;;;;;;;5051426;28;20029;-72
2023/03/01 09:34:06;;;;;;;33.92;16.13;;;;;;;;;;5051125;28;20017;-72
2023/03/01 09:36:33;;;;;;;31.50;16.98;;;;;;;;;;5051357;28;20021;-72
2023/03/01 09:38:59;;;;;;;32.15;16.85;;;;;;;;;;5053048;28;20486;-72
2023/03/01 09:41:51;;;;;;;28.50;15.05;;;;;;;;;;5052546;28;20103;-71
2023/03/01 09:44:23;;;;;;;32.30;17.23;;;;;;;;;;5043365;28;20068;-72
2023/03/01 09:46:49;;;;;;;30.40;15.95;;;;;;;;;;5056086;28;20545;-73
2023/03/01 09:49:21;;;;;;;32.35;16.15;;;;;;;;;;5055375;28;20021;-73
2023/03/01 09:51:58;;;;;;;31.33;15.73;;;;;;;;;;5045780;28;20402;-72
2023/03/01 09:54:24;;;;;;;28.98;16.20;;;;;;;;;;5045720;28;20100;-73
2023/03/01 09:57:08;;;;;;;29.55;16.17;;;;;;;;;;5055254;28;20028;-73
2023/03/01 10:00:00;;;;;;;30.90;16.90;;;;;;;;;;5049305;28;20036;-71
2023/03/01 10:02:29;;;;;;;26.40;14.98;;;;;;;;;;5041603;28;20128;-72
2023/03/01 10:04:58;;;;;;;26.73;15.35;;;;;;;;;;5045993;28;20070;-74
2023/03/01 10:07:39;;;;;;;27.25;15.60;;;;;;;;;;5052324;28;20028;-73
2023/03/01 10:10:08;;;;;;;24.27;14.70;;;;;;;;;;5046680;28;20026;-74
2023/03/01 10:12:40;;;;;;;24.88;14.85;;;;;;;;;;5048732;28;20030;-73
2023/03/01 10:15:07;;;;;;;27.25;13.75;;;;;;;;;;5053010;28;20028;-73
2023/03/01 10:17:42;;;;;;;24.17;14.15;;;;;;;;;;5051202;28;20044;-74
2023/03/01 10:20:16;;;;;;;22.88;13.05;;;;;;;;;;5054822;28;20025;-72
2023/03/01 10:22:42;;;;;;;25.23;13.98;;;;;;;;;;5055301;28;20390;-72
2023/03/01 10:25:13;;;;;;;22.05;12.43;;;;;;;;;;5055024;28;20032;-71
2023/03/01 10:27:42;;;;;;;26.73;12.40;;;;;;;;;;5054754;28;20021;-71
2023/03/01 10:30:08;;;;;;;21.67;12.57;;;;;;;;;;5054902;28;20079;-73
2023/03/01 10:32:34;;;;;;;22.30;13.25;;;;;;;;;;5054458;28;20021;-74
2023/03/01 10:35:00;;;;;;;24.23;13.25;;;;;;;;;;5054548;28;20372;-74
2023/03/01 10:37:27;;;;;;;21.15;12.32;;;;;;;;;;5054370;28;20053;-73
2023/03/01 10:40:01;;;;;;;21.33;11.98;;;;;;;;;;5054575;28;20150;-75
2023/03/01 10:42:34;;;;;;;20.35;12.15;;;;;;;;;;5054131;28;20059;-75
2023/03/01 10:45:17;;;;;;;18.27;11.27;;;;;;;;;;5053866;28;20033;-75
2023/03/01 10:47:43;;;;;;;24.08;12.95;;;;;;;;;;5054084;28;20029;-72
2023/03/01 10:50:20;;;;;;;19.30;11.45;;;;;;;;;;5052896;28;20109;-72
2023/03/01 10:52:57;;;;;;;18.08;10.60;;;;;;;;;;5056317;28;20017;-73
2023/03/01 10:55:39;;;;;;;20.52;11.15;;;;;;;;;;5054687;28;20087;-73
2023/03/01 10:58:14;;;;;;;18.40;9.70;;;;;;;;;;5055016;28;20033;-73
2023/03/01 11:00:47;;;;;;;15.63;9.13;;;;;;;;;;5054717;28;20021;-74
2023/03/01 11:03:14;;;;;;;17.63;8.93;;;;;;;;;;5054256;28;20021;-73
2023/03/01 11:05:54;;;;;;;25.75;12.35;;;;;;;;;;5054045;28;20076;-74
2023/03/01 11:08:38;;;;;;;16.23;9.55;;;;;;;;;;5053809;28;20033;-73
2023/03/01 11:11:13;;;;;;;15.25;9.30;;;;;;;;;;5053919;28;20071;-74
2023/03/01 11:13:48;;;;;;;14.35;8.38;;;;;;;;;;5054002;28;20025;-72
2023/03/01 11:16:14;;;;;;;;;;;;;;;;;;5053794;28;20029;-72
2023/03/01 11:18:40;;;;;;;12.23;7.93;;;;;;;;;;5053418;28;19915;-73
2023/03/01 11:21:08;;;;;;;17.20;8.63;;;;;;;;;;5053717;28;20527;-72
2023/03/01 11:23:34;;;;;;;12.88;7.80;;;;;;;;;;5053137;28;20389;-73
2023/03/01 11:26:03;;;;;;;10.35;7.13;;;;;;;;;;5053310;28;20059;-71
2023/03/01 11:28:30;;;;;;;13.05;7.30;;;;;;;;;;5053371;28;20029;-74
2023/03/01 11:31:13;;;;;;;13.40;8.48;;;;;;;;;;5053815;28;20071;-72
2023/03/01 11:33:58;;;;;;;13.40;8.48;;;;;;;;;;5053026;28;20056;-74
2023/03/01 11:36:41;;;;;;;11.27;7.43;;;;;;;;;;5053200;28;20035;-72
2023/03/01 11:39:27;;;;;;;14.10;8.18;;;;;;;;;;5053276;28;20025;-72
2023/03/01 11:42:00;;;;;;;14.00;8.63;;;;;;;;;;5053551;28;20078;-73
2023/03/01 11:44:28;;;;;;;12.00;7.35;;;;;;;;;;5053242;28;20041;-74
2023/03/01 11:47:06;;;;;;;11.90;7.68;;;;;;;;;;5053308;28;20445;-73
2023/03/01 11:49:50;;;;;;;15.02;8.00;;;;;;;;;;5053005;28;20025;-74
2023/03/01 11:52:22;;;;;;;10.60;8.38;;;;;;;;;;5053317;28;20043;-74
2023/03/01 11:55:00;;;;;;;11.85;8.13;;;;;;;;;;5052905;28;20467;-73
2023/03/01 11:57:38;;;;;;;13.98;8.95;;;;;;;;;;5052671;28;20094;-72
2023/03/01 12:00:11;;;;;;;16.30;8.50;;;;;;;;;;5052770;28;20029;-72
2023/03/01 12:02:52;;;;;;;14.27;7.60;;;;;;;;;;5051549;28;20544;-73
2023/03/01 12:05:45;;;;;;;10.18;7.63;;;;;;;;;;5052799;28;20033;-72
2023/03/01 12:08:15;;;;;;;12.00;8.65;;;;;;;;;;5051240;28;20527;-73
2023/03/01 12:10:41;;;;;;;16.60;8.35;;;;;;;;;;5051826;28;20021;-75
2023/03/01 12:13:10;;;;;;;11.85;7.82;;;;;;;;;;5051706;28;20490;-74
2023/03/01 12:15:48;;;;;;;10.98;8.55;;;;;;;;;;5052369;28;20058;-75
2023/03/01 12:18:33;;;;;;;15.63;8.73;;;;;;;;;;5052319;28;20021;-73
2023/03/01 12:20:59;;;;;;;;;;;;;;;;;;5052509;28;20057;-75
2023/03/01 12:23:31;;;;;;;10.20;7.05;;;19.10;99.90;;;;;;5052075;28;19912;-74
2023/03/01 12:26:31;;;;;;;10.93;7.97;;;25.20;1.00;;;;;;5052657;28;20479;-73
2023/03/01 12:29:11;;;;;;;12.75;8.52;;;24.50;1.00;;;;;;5052077;28;20035;-73
2023/03/01 12:31:53;;;;;;;15.18;8.50;;;23.70;1.00;;;;;;5052013;28;20551;-75
2023/03/01 12:34:46;;;;;;;9.32;7.20;;;24.30;1.00;;;;;;5051267;28;20504;-74
2023/03/01 12:37:33;;;;;;;11.23;7.28;;;24.20;1.00;;;;;;5052118;28;20036;-73
2023/03/01 12:40:37;;;;;;;9.88;6.53;;;23.90;1.00;;;;;;5051994;28;20037;-74
2023/03/01 12:43:02;;;;;;;12.60;7.30;;;23.70;1.00;;;;;;5051908;28;20028;-72
2023/03/01 12:45:34;;;;;;;12.57;7.85;;;23.90;1.00;;;;;;5052626;28;20104;-72
2023/03/01 12:48:20;;;;;;;13.50;8.05;;;24.40;1.00;;;;;;5052960;28;20024;-73
2023/03/01 12:50:53;;;;;;;11.07;7.95;;;25.10;1.00;;;;;;5052146;28;20029;-73
2023/03/01 12:53:27;;;;;;;10.10;7.75;;;24.90;1.00;;;;;;5051777;28;20100;-73
2023/03/01 12:56:02;;;;;;;12.48;8.80;;;25.30;1.00;;;;;;5051961;28;20135;-72
2023/03/01 12:58:41;;;;;;;8.32;6.55;;;26.10;1.00;;;;;;5051895;28;20025;-72
2023/03/01 13:01:27;;;;;;;11.75;8.10;;;26.40;1.00;;;;;;5046213;28;20020;-72
2023/03/01 13:04:10;;;;;;;9.75;6.78;;;25.90;1.00;;;;;;5045833;28;20051;-72
2023/03/01 13:06:57;;;;;;;11.38;7.40;;;25.90;1.00;;;;;;5049701;28;20040;-72
2023/03/01 13:09:36;;;;;;;10.38;6.90;;;26.10;1.00;;;;;;5046848;28;20013;-73
2023/03/01 13:12:02;;;;;;;10.73;6.40;;;26.60;1.00;;;;;;5043458;28;20021;-72
2023/03/01 13:14:31;;;;;;;9.80;6.45;;;26.80;1.00;;;;;;5047300;28;20021;-74
2023/03/01 13:16:56;;;;;;;9.20;6.50;;;26.90;1.00;;;;;;5059543;28;20066;-74
2023/03/01 13:19:25;;;;;;;10.82;6.90;;;25.60;1.00;;;;;;5053432;28;20111;-75
2023/03/01 13:21:54;;;;;;;10.68;7.38;;;25.70;1.00;;;;;;5049937;28;20025;-74
2023/03/01 13:24:39;;;;;;;7.07;5.45;;;25.20;1.00;;;;;;5051421;28;20029;-73
2023/03/01 13:27:22;;;;;;;8.60;6.47;;;25.40;1.00;;;;;;5049050;28;20040;-73
2023/03/01 13:29:54;;;;;;;8.93;6.32;;;25.30;1.00;;;;;;5051765;28;20382;-72
2023/03/01 13:32:22;;;;;;;8.55;5.78;;;25.50;1.00;;;;;;5048978;28;20334;-73
2023/03/01 13:34:56;;;;;;;9.77;5.88;;;25.90;1.00;;;;;;5051798;28;20021;-73
2023/03/01 13:37:29;;;;;;;7.95;5.25;;;25.80;1.00;;;;;;5055220;28;20052;-73
2023/03/01 13:40:04;;;;;;;6.32;5.03;;;25.70;1.00;;;;;;5047483;28;20623;-72
2023/03/01 13:42:29;;;;;;;7.05;5.22;;;25.80;1.00;;;;;;5051910;28;20079;-72
2023/03/01 13:44:55;;;;;;;6.85;4.70;;;25.80;1.00;;;;;;5054911;28;20065;-74
2023/03/01 13:47:21;;;;;;;7.93;5.80;;;25.80;1.00;;;;;;5055192;28;20060;-73
2023/03/01 13:50:03;;;;;;;7.70;5.32;;;26.10;1.00;;;;;;5048825;28;20029;-74
2023/03/01 13:52:59;;;;;;;12.40;5.60;;;26.50;1.00;;;;;;5048114;28;20154;-73
2023/03/01 13:55:36;;;;;;;8.48;5.28;;;27.00;1.00;;;;;;5053834;28;20051;-72
2023/03/01 13:58:12;;;;;;;7.80;5.40;;;27.10;1.00;;;;;;5051165;28;20028;-73
2023/03/01 14:00:39;;;;;;;8.10;6.38;;;27.00;1.00;;;;;;5052616;28;20033;-71
2023/03/01 14:03:16;;;;;;;12.00;7.72;;;27.30;1.00;;;;;;5054297;28;20025;-73
2023/03/01 14:06:06;;;;;;;10.65;5.93;;;27.30;1.00;;;;;;5047730;28;20429;-72
2023/03/01 14:08:32;;;;;;;11.80;6.15;;;27.00;1.00;;;;;;5050621;28;20178;-73
2023/03/01 14:11:13;;;;;;;8.05;5.30;;;26.90;1.00;;;;;;5054508;28;20204;-74
2023/03/01 14:13:44;;;;;;;8.20;5.97;;;26.40;1.00;;;;;;5054036;28;20433;-74
2023/03/01 14:16:28;;;;;;;8.48;6.20;;;26.70;1.00;;;;;;5050987;28;20060;-72
2023/03/01 14:19:13;;;;;;;10.77;7.70;;;26.50;1.00;;;;;;5043878;28;20525;-74
2023/03/01 14:21:38;;;;;;;8.23;5.95;;;26.70;1.00;;;;;;5052494;28;20478;-73